createdAt,value
2022-12-08T00:02:53.995Z,1.64
2022-12-08T00:05:33.768Z,1.60
2022-12-08T00:08:22.811Z,1.80
2022-12-08T00:10:54.878Z,1.78
2022-12-08T00:13:26.486Z,1.77
2022-12-08T00:16:03.155Z,1.75
2022-12-08T00:18:34.699Z,1.78
2022-12-08T00:21:07.885Z,1.70
2022-12-08T00:23:47.148Z,1.62
2022-12-08T00:26:18.986Z,1.65
2022-12-08T00:28:51.556Z,1.61
2022-12-08T00:31:25.074Z,1.62
2022-12-08T00:34:09.284Z,1.69
2022-12-08T00:37:07.317Z,1.72
2022-12-08T00:39:57.666Z,1.74
2022-12-08T00:42:48.726Z,1.82
2022-12-08T00:45:44.791Z,1.73
2022-12-08T00:48:16.365Z,1.57
2022-12-08T00:50:47.853Z,1.48
2022-12-08T00:53:19.345Z,1.35
2022-12-08T00:55:50.862Z,1.28
2022-12-08T00:58:36.427Z,1.27
2022-12-08T01:01:45.511Z,1.24
2022-12-08T01:04:25.251Z,1.38
2022-12-08T01:07:22.748Z,1.43
2022-12-08T01:09:59.338Z,1.37
2022-12-08T01:12:32.141Z,1.40
2022-12-08T01:15:03.727Z,1.35
2022-12-08T01:17:35.584Z,1.27
2022-12-08T01:20:09.327Z,1.30
2022-12-08T01:22:41.000Z,1.22
2022-12-08T01:25:25.994Z,1.04
2022-12-08T01:27:57.650Z,0.99
2022-12-08T01:32:31.368Z,0.90
2022-12-08T01:33:33.728Z,0.90
2022-12-08T01:36:08.467Z,0.92
2022-12-08T01:38:40.280Z,0.87
2022-12-08T01:41:15.304Z,0.78
2022-12-08T01:44:03.143Z,0.82
2022-12-08T01:46:37.550Z,0.84
2022-12-08T01:49:14.064Z,0.97
2022-12-08T01:51:50.504Z,0.95
2022-12-08T01:54:24.541Z,0.78
2022-12-08T01:57:05.248Z,0.77
2022-12-08T01:59:43.145Z,0.73
2022-12-08T02:02:18.381Z,0.76
2022-12-08T02:04:50.542Z,0.74
2022-12-08T02:07:23.768Z,0.68
2022-12-08T02:09:56.674Z,0.68
2022-12-08T02:12:30.077Z,0.80
2022-12-08T02:15:05.499Z,0.83
2022-12-08T02:17:53.917Z,0.87
2022-12-08T02:20:39.590Z,0.89
2022-12-08T02:23:24.587Z,0.75
2022-12-08T02:26:23.711Z,0.64
2022-12-08T02:29:24.547Z,0.78
2022-12-08T02:32:23.626Z,0.70
2022-12-08T02:35:01.383Z,0.73
2022-12-08T02:37:38.923Z,0.85
2022-12-08T02:40:20.915Z,0.75
2022-12-08T02:42:58.704Z,0.75
2022-12-08T02:45:35.779Z,0.72
2022-12-08T02:48:07.878Z,0.70
2022-12-08T02:50:39.318Z,0.63
2022-12-08T02:55:53.047Z,0.67
2022-12-08T02:58:49.632Z,0.60
2022-12-08T03:01:44.717Z,0.70
2022-12-08T03:04:24.237Z,0.84
2022-12-08T03:07:04.427Z,0.82
2022-12-08T03:09:41.229Z,0.75
2022-12-08T03:12:19.919Z,0.69
2022-12-08T03:14:55.339Z,0.64
2022-12-08T03:17:30.006Z,0.71
2022-12-08T03:20:21.396Z,0.72
2022-12-08T03:23:21.345Z,0.77
2022-12-08T03:25:58.438Z,0.68
2022-12-08T03:28:30.302Z,0.78
2022-12-08T03:31:05.411Z,0.74
2022-12-08T03:33:44.699Z,0.76
2022-12-08T03:36:17.520Z,0.76
2022-12-08T03:38:52.720Z,0.78
2022-12-08T03:41:24.930Z,0.77
2022-12-08T03:43:59.849Z,0.78
2022-12-08T03:46:49.331Z,0.72
2022-12-08T03:49:31.349Z,0.68
2022-12-08T03:52:03.027Z,0.85
2022-12-08T03:54:35.881Z,0.90
2022-12-08T03:57:07.482Z,0.85
2022-12-08T03:59:39.315Z,0.82
2022-12-08T04:02:10.836Z,0.86
2022-12-08T04:04:42.424Z,0.91
2022-12-08T04:07:16.241Z,0.86
2022-12-08T04:09:47.761Z,0.76
2022-12-08T04:12:19.188Z,0.83
2022-12-08T04:14:50.612Z,0.86
2022-12-08T04:17:23.458Z,0.90
2022-12-08T04:19:55.163Z,0.94
2022-12-08T04:22:32.557Z,0.88
2022-12-08T04:25:08.666Z,0.75
2022-12-08T04:27:40.149Z,0.78
2022-12-08T04:37:57.102Z,1.02
2022-12-08T04:40:28.834Z,0.99
2022-12-08T04:43:00.495Z,0.89
2022-12-08T04:45:48.284Z,0.74
2022-12-08T04:48:21.342Z,0.76
2022-12-08T04:50:53.079Z,0.80
2022-12-08T04:53:26.949Z,0.79
2022-12-08T04:55:58.446Z,0.77
2022-12-08T04:58:29.895Z,0.71
2022-12-08T05:01:01.626Z,0.71
2022-12-08T05:03:33.315Z,0.84
2022-12-08T05:06:07.479Z,0.96
2022-12-08T05:08:39.233Z,0.98
2022-12-08T05:11:12.379Z,1.00
2022-12-08T05:13:44.016Z,0.92
2022-12-08T05:16:22.269Z,0.83
2022-12-08T05:18:55.386Z,0.74
2022-12-08T05:21:26.866Z,0.73
2022-12-08T05:24:00.294Z,0.72
2022-12-08T05:26:31.967Z,0.68
2022-12-08T05:29:03.352Z,0.77
2022-12-08T05:31:35.243Z,0.78
2022-12-08T05:34:06.685Z,0.74
2022-12-08T05:36:38.901Z,0.76
2022-12-08T05:39:10.854Z,0.75
2022-12-08T05:41:43.006Z,0.67
2022-12-08T05:44:14.461Z,0.61
2022-12-08T05:46:46.170Z,0.57
2022-12-08T05:49:20.424Z,0.57
2022-12-08T05:51:51.978Z,0.67
2022-12-08T05:54:25.674Z,0.66
2022-12-08T05:57:00.675Z,0.56
2022-12-08T06:00:30.349Z,0.54
2022-12-08T06:02:40.038Z,0.57
2022-12-08T06:05:15.722Z,0.62
2022-12-08T06:07:47.229Z,0.47
2022-12-08T06:10:18.993Z,0.52
2022-12-08T06:12:50.493Z,0.51
2022-12-08T06:15:28.443Z,0.48
2022-12-08T06:17:59.900Z,0.51
2022-12-08T06:20:31.459Z,0.42
2022-12-08T06:23:03.808Z,0.33
2022-12-08T06:25:35.313Z,0.31
2022-12-08T06:28:08.858Z,0.28
2022-12-08T06:30:41.183Z,0.19
2022-12-08T06:33:12.695Z,0.20
2022-12-08T06:35:44.684Z,0.25
2022-12-08T06:38:16.117Z,0.29
2022-12-08T06:40:56.834Z,0.32
2022-12-08T06:43:29.102Z,0.28
2022-12-08T06:46:00.667Z,0.24
2022-12-08T06:48:32.195Z,0.30
2022-12-08T06:51:11.251Z,0.29
2022-12-08T06:53:43.714Z,0.26
2022-12-08T06:56:16.136Z,0.41
2022-12-08T06:58:52.436Z,0.36
2022-12-08T07:01:25.438Z,0.37
2022-12-08T07:03:57.324Z,0.26
2022-12-08T07:06:33.851Z,0.23
2022-12-08T07:09:06.071Z,0.20
2022-12-08T07:11:39.558Z,0.19
2022-12-08T07:14:15.772Z,0.21
2022-12-08T07:16:48.041Z,0.28
2022-12-08T07:19:19.832Z,0.44
2022-12-08T07:21:51.563Z,0.47
2022-12-08T07:24:23.236Z,0.44
2022-12-08T07:26:54.805Z,0.49
2022-12-08T07:29:26.618Z,0.58
2022-12-08T07:31:59.852Z,0.70
2022-12-08T07:34:31.387Z,0.64
2022-12-08T07:37:03.485Z,0.50
2022-12-08T07:39:34.884Z,0.44
2022-12-08T07:42:08.472Z,0.46
2022-12-08T07:44:40.040Z,0.52
2022-12-08T07:47:11.662Z,0.47
2022-12-08T07:49:43.191Z,0.50
2022-12-08T07:52:14.634Z,0.55
2022-12-08T07:54:47.558Z,0.50
2022-12-08T07:57:19.128Z,0.58
2022-12-08T07:59:55.093Z,0.55
2022-12-08T08:02:27.003Z,0.61
2022-12-08T08:04:58.707Z,0.78
2022-12-08T08:07:31.922Z,1.06
2022-12-08T08:10:03.601Z,1.36
2022-12-08T08:12:35.439Z,1.55
2022-12-08T08:15:09.549Z,1.77
2022-12-08T08:17:41.281Z,1.86
2022-12-08T08:20:14.706Z,1.92
2022-12-08T08:22:46.995Z,1.85
2022-12-08T08:25:19.682Z,1.79
2022-12-08T08:27:51.257Z,1.77
2022-12-08T08:30:23.019Z,1.65
2022-12-08T08:32:54.594Z,1.57
2022-12-08T08:35:26.182Z,1.61
2022-12-08T08:37:58.064Z,1.64
2022-12-08T08:40:31.980Z,1.58
2022-12-08T08:43:09.627Z,1.60
2022-12-08T08:45:41.332Z,1.58
2022-12-08T08:48:15.394Z,1.63
2022-12-08T08:50:46.852Z,1.83
2022-12-08T08:53:18.323Z,1.80
2022-12-08T08:55:50.460Z,1.85
2022-12-08T08:58:22.090Z,1.97
2022-12-08T09:00:53.935Z,1.97
2022-12-08T09:03:28.155Z,2.03
2022-12-08T09:06:00.382Z,2.03
2022-12-08T09:08:32.063Z,2.12
2022-12-08T09:11:03.641Z,2.12
2022-12-08T09:13:35.408Z,2.11
2022-12-08T09:16:08.816Z,2.11
2022-12-08T09:18:40.891Z,2.18
2022-12-08T09:21:16.786Z,2.24
2022-12-08T09:23:48.415Z,2.19
2022-12-08T09:26:23.732Z,2.23
2022-12-08T09:28:58.590Z,2.29
2022-12-08T09:31:30.274Z,2.34
2022-12-08T09:34:01.985Z,2.40
2022-12-08T09:36:34.152Z,2.48
2022-12-08T09:39:06.041Z,2.60
2022-12-08T09:41:48.260Z,2.70
2022-12-08T09:44:50.481Z,2.92
2022-12-08T09:47:33.759Z,3.00
2022-12-08T09:50:08.722Z,3.00
2022-12-08T09:52:46.255Z,2.96
2022-12-08T09:55:26.091Z,2.95
2022-12-08T09:58:05.014Z,3.03
2022-12-08T10:00:43.455Z,3.12
2022-12-08T10:03:17.048Z,3.16
2022-12-08T10:05:57.570Z,3.27
2022-12-08T10:08:36.230Z,3.29
2022-12-08T10:11:15.821Z,3.41
2022-12-08T10:13:54.776Z,3.40
2022-12-08T10:16:36.316Z,3.45
2022-12-08T10:19:15.921Z,3.52
2022-12-08T10:21:48.061Z,3.59
2022-12-08T10:24:27.709Z,3.57
2022-12-08T10:27:00.352Z,3.48
2022-12-08T10:29:31.962Z,3.60
2022-12-08T10:32:11.391Z,3.71
2022-12-08T10:35:03.192Z,3.74
2022-12-08T10:37:35.070Z,3.76
2022-12-08T10:40:13.064Z,3.58
2022-12-08T10:42:48.837Z,3.39
2022-12-08T10:45:28.066Z,3.49
2022-12-08T10:48:06.272Z,3.56
2022-12-08T10:50:43.698Z,3.55
2022-12-08T10:53:23.034Z,3.59
2022-12-08T10:56:08.484Z,3.50
2022-12-08T10:58:42.282Z,3.35
2022-12-08T11:01:18.773Z,3.27
2022-12-08T11:03:53.150Z,3.15
2022-12-08T11:06:27.692Z,3.20
2022-12-08T11:09:01.613Z,3.07
2022-12-08T11:11:49.415Z,2.87
2022-12-08T11:14:24.435Z,2.69
2022-12-08T11:16:58.892Z,2.65
2022-12-08T11:19:32.611Z,2.79
2022-12-08T11:22:04.460Z,3.00
2022-12-08T11:24:39.090Z,3.07
2022-12-08T11:27:12.429Z,3.09
2022-12-08T11:29:44.469Z,3.05
2022-12-08T11:32:16.705Z,2.98
2022-12-08T11:34:52.367Z,2.96
2022-12-08T11:37:34.664Z,3.05
2022-12-08T11:40:16.264Z,3.14
2022-12-08T11:42:56.644Z,3.03
2022-12-08T11:45:33.756Z,3.08
2022-12-08T11:48:13.736Z,3.16
2022-12-08T11:50:51.904Z,3.10
2022-12-08T11:53:31.028Z,3.10
2022-12-08T11:56:08.573Z,3.05
2022-12-08T11:58:45.423Z,2.92
2022-12-08T12:01:23.067Z,2.96
2022-12-08T12:04:08.757Z,3.02
2022-12-08T12:07:12.291Z,3.04
2022-12-08T12:09:53.980Z,3.17
2022-12-08T12:12:40.040Z,3.24
2022-12-08T12:15:36.246Z,3.32
2022-12-08T12:18:16.902Z,3.32
2022-12-08T12:20:57.461Z,3.42
2022-12-08T12:23:40.194Z,3.51
2022-12-08T12:26:22.953Z,3.59
2022-12-08T12:28:58.471Z,3.58
2022-12-08T12:31:33.540Z,3.54
2022-12-08T12:34:12.790Z,3.53
2022-12-08T12:36:57.196Z,3.55
2022-12-08T12:39:32.686Z,3.65
2022-12-08T12:42:05.885Z,3.76
2022-12-08T12:44:44.911Z,3.91
2022-12-08T12:47:55.945Z,3.88
2022-12-08T12:50:47.988Z,3.90
2022-12-08T12:53:52.344Z,3.81
2022-12-08T12:56:50.188Z,3.86
2022-12-08T12:59:50.222Z,3.91
2022-12-08T13:02:29.245Z,3.91
2022-12-08T13:05:10.346Z,3.90
2022-12-08T13:07:55.704Z,3.96
2022-12-08T13:10:31.053Z,4.01
2022-12-08T13:13:19.535Z,4.02
2022-12-08T13:15:56.606Z,3.99
2022-12-08T13:18:34.338Z,4.00
2022-12-08T13:21:15.434Z,3.99
2022-12-08T13:23:49.505Z,3.98
2022-12-08T13:26:33.808Z,3.89
2022-12-08T13:29:18.682Z,3.93
2022-12-08T13:31:53.410Z,3.95
2022-12-08T13:34:47.172Z,4.13
2022-12-08T13:37:27.600Z,4.09
2022-12-08T13:40:04.322Z,4.13
2022-12-08T13:42:47.568Z,4.21
2022-12-08T13:48:41.666Z,4.18
2022-12-08T13:57:22.013Z,4.33
2022-12-08T13:59:53.787Z,4.33
2022-12-08T14:02:34.367Z,4.30
2022-12-08T14:05:40.461Z,4.31
2022-12-08T14:07:59.619Z,4.19
2022-12-08T14:10:33.805Z,4.07
2022-12-08T14:13:07.908Z,3.99
2022-12-08T14:15:41.213Z,3.94
2022-12-08T14:18:27.503Z,4.02
2022-12-08T14:21:23.319Z,4.11
2022-12-08T14:23:54.853Z,3.98
2022-12-08T14:26:26.644Z,3.93
2022-12-08T14:28:58.349Z,4.00
2022-12-08T14:31:30.808Z,4.13
2022-12-08T14:34:02.604Z,4.13
2022-12-08T14:36:34.552Z,4.21
2022-12-08T14:39:06.294Z,4.18
2022-12-08T14:41:38.064Z,4.10
2022-12-08T14:44:25.156Z,3.86
2022-12-08T14:47:11.765Z,3.74
2022-12-08T14:49:44.873Z,3.91
2022-12-08T14:52:17.305Z,3.87
2022-12-08T14:54:51.227Z,3.77
2022-12-08T14:57:23.101Z,3.88
2022-12-08T15:00:00.746Z,3.86
2022-12-08T15:02:43.682Z,3.76
2022-12-08T15:05:17.699Z,3.65
2022-12-08T15:07:52.411Z,3.57
2022-12-08T15:10:29.902Z,3.62
2022-12-08T15:13:08.971Z,3.53
2022-12-08T15:15:53.302Z,3.62
2022-12-08T15:18:37.931Z,3.54
2022-12-08T15:21:13.319Z,3.56
2022-12-08T15:23:52.703Z,3.69
2022-12-08T15:26:28.570Z,3.83
2022-12-08T15:29:11.088Z,3.83
2022-12-08T15:31:43.476Z,3.64
2022-12-08T15:34:18.924Z,3.64
2022-12-08T15:36:54.027Z,3.65
2022-12-08T15:39:36.214Z,3.44
2022-12-08T15:42:13.541Z,3.42
2022-12-08T15:44:46.614Z,3.50
2022-12-08T15:47:24.314Z,3.46
2022-12-08T15:49:59.411Z,3.43
2022-12-08T15:52:31.154Z,3.58
2022-12-08T15:55:03.048Z,3.60
2022-12-08T15:58:17.382Z,3.53
2022-12-08T16:00:53.444Z,3.44
2022-12-08T16:07:12.856Z,3.48
2022-12-08T16:09:25.527Z,3.51
2022-12-08T16:12:15.331Z,3.62
2022-12-08T16:17:41.198Z,3.63
2022-12-08T16:20:17.267Z,3.68
2022-12-08T16:22:56.767Z,3.65
2022-12-08T16:25:52.729Z,3.66
2022-12-08T16:28:52.989Z,3.83
2022-12-08T16:31:22.656Z,3.92
2022-12-08T16:34:05.633Z,3.96
2022-12-08T16:36:39.011Z,3.97
2022-12-08T16:39:12.133Z,3.84
2022-12-08T16:42:01.831Z,3.86
2022-12-08T16:44:33.586Z,4.03
2022-12-08T16:47:13.042Z,4.02
2022-12-08T16:49:45.231Z,3.90
2022-12-08T16:52:20.355Z,3.93
2022-12-08T16:54:53.546Z,3.91
2022-12-08T16:57:25.716Z,3.89
2022-12-08T16:59:57.657Z,3.78
2022-12-08T17:02:32.072Z,3.87
2022-12-08T17:05:04.130Z,3.90
2022-12-08T17:07:38.534Z,3.82
2022-12-08T17:10:13.637Z,3.73
2022-12-08T17:12:46.839Z,3.78
2022-12-08T17:15:20.891Z,3.84
2022-12-08T17:17:53.882Z,3.89
2022-12-08T17:20:27.740Z,3.84
2022-12-08T17:23:00.550Z,3.75
2022-12-08T17:25:33.625Z,3.71
2022-12-08T17:28:05.255Z,3.70
2022-12-08T17:30:37.094Z,3.74
2022-12-08T17:33:10.063Z,3.78
2022-12-08T17:35:41.789Z,3.92
2022-12-08T17:38:14.384Z,3.94
2022-12-08T17:40:47.296Z,3.80
2022-12-08T17:43:20.117Z,3.73
2022-12-08T17:45:56.487Z,3.73
2022-12-08T17:48:29.352Z,3.67
2022-12-08T17:51:01.286Z,3.74
2022-12-08T17:53:37.372Z,3.85
2022-12-08T17:56:16.448Z,3.81
2022-12-08T17:58:54.555Z,3.74
2022-12-08T18:01:29.407Z,3.66
2022-12-08T18:04:02.860Z,3.61
2022-12-08T18:06:36.674Z,3.68
2022-12-08T18:09:12.387Z,3.65
2022-12-08T18:11:46.466Z,3.61
2022-12-08T18:14:19.685Z,3.50
2022-12-08T18:16:52.061Z,3.37
2022-12-08T18:19:25.442Z,3.37
2022-12-08T18:21:57.648Z,3.30
2022-12-08T18:24:29.783Z,3.36
2022-12-08T18:27:04.228Z,3.31
2022-12-08T18:29:43.423Z,3.20
2022-12-08T18:32:15.068Z,3.15
2022-12-08T18:34:47.800Z,3.10
2022-12-08T18:37:20.196Z,3.03
2022-12-08T18:39:55.371Z,2.99
2022-12-08T18:42:37.022Z,2.95
2022-12-08T18:45:12.379Z,2.93
2022-12-08T18:47:48.999Z,2.94
2022-12-08T18:50:26.044Z,2.83
2022-12-08T18:53:00.034Z,2.74
2022-12-08T18:55:32.772Z,2.69
2022-12-08T18:58:05.659Z,2.67
2022-12-08T19:00:39.515Z,2.60
2022-12-08T19:03:13.948Z,2.81
2022-12-08T19:05:46.149Z,2.80
2022-12-08T19:08:24.428Z,2.81
2022-12-08T19:11:04.078Z,2.58
2022-12-08T19:13:37.822Z,2.54
2022-12-08T19:16:12.512Z,2.54
2022-12-08T19:18:47.796Z,2.52
2022-12-08T19:21:24.702Z,2.49
2022-12-08T19:24:01.383Z,2.45
2022-12-08T19:26:36.177Z,2.27
2022-12-08T19:29:06.981Z,2.28
2022-12-08T19:31:41.103Z,2.20
2022-12-08T19:34:16.195Z,2.23
2022-12-08T19:36:50.103Z,2.19
2022-12-08T19:39:43.698Z,2.15
2022-12-08T19:42:40.363Z,2.07
2022-12-08T19:45:19.260Z,2.01
2022-12-08T19:47:53.910Z,1.97
2022-12-08T19:50:40.869Z,1.86
2022-12-08T19:53:16.918Z,1.88
2022-12-08T19:55:51.008Z,1.87
2022-12-08T19:58:34.505Z,1.85
2022-12-08T20:01:13.684Z,1.84
2022-12-08T20:03:48.991Z,1.86
2022-12-08T20:06:23.530Z,1.98
2022-12-08T20:08:58.796Z,2.02
2022-12-08T20:11:35.832Z,2.02
2022-12-08T20:14:13.071Z,1.89
2022-12-08T20:16:48.180Z,1.93
2022-12-08T20:19:26.554Z,2.03
2022-12-08T20:22:04.862Z,2.10
2022-12-08T20:24:38.237Z,2.19
2022-12-08T20:27:13.028Z,2.19
2022-12-08T20:29:46.840Z,2.11
2022-12-08T20:32:20.215Z,2.08
2022-12-08T20:34:56.566Z,2.02
2022-12-08T20:37:30.412Z,1.91
2022-12-08T20:40:03.588Z,1.93
2022-12-08T20:42:37.797Z,1.91
2022-12-08T20:45:12.716Z,1.95
2022-12-08T20:47:47.932Z,1.90
2022-12-08T20:50:20.761Z,1.81
2022-12-08T20:52:53.742Z,1.77
2022-12-08T20:55:26.069Z,1.71
2022-12-08T20:57:59.110Z,1.86
2022-12-08T21:00:32.495Z,1.87
2022-12-08T21:03:04.509Z,1.84
2022-12-08T21:05:40.748Z,1.82
2022-12-08T21:08:14.220Z,1.80
2022-12-08T21:10:46.181Z,1.86
2022-12-08T21:13:18.098Z,1.82
2022-12-08T21:15:49.934Z,1.80
2022-12-08T21:18:23.290Z,1.69
2022-12-08T21:21:03.261Z,1.59
2022-12-08T21:23:36.607Z,1.49
2022-12-08T21:26:13.811Z,1.54
2022-12-08T21:28:49.746Z,1.53
2022-12-08T21:31:27.123Z,1.48
2022-12-08T21:34:00.652Z,1.48
2022-12-08T21:36:33.116Z,1.52
2022-12-08T21:39:14.059Z,1.61
2022-12-08T21:42:05.590Z,1.66
2022-12-08T21:44:39.305Z,1.76
2022-12-08T21:47:28.139Z,1.63
2022-12-08T21:50:11.657Z,1.66
2022-12-08T21:52:45.512Z,1.64
2022-12-08T21:55:24.761Z,1.58
2022-12-08T21:57:57.321Z,1.52
2022-12-08T22:00:29.983Z,1.47
2022-12-08T22:03:03.452Z,1.56
2022-12-08T22:05:56.396Z,1.53
2022-12-08T22:08:34.306Z,1.46
2022-12-08T22:11:12.180Z,1.39
2022-12-08T22:13:45.720Z,1.27
2022-12-08T22:16:17.880Z,1.22
2022-12-08T22:18:49.727Z,1.19
2022-12-08T22:21:22.335Z,1.24
2022-12-08T22:23:54.591Z,1.21
2022-12-08T22:26:26.413Z,1.10
2022-12-08T22:28:58.797Z,1.11
2022-12-08T22:31:30.716Z,1.15
2022-12-08T22:34:03.786Z,1.17
2022-12-08T22:36:35.645Z,1.18
2022-12-08T22:39:07.514Z,1.20
2022-12-08T22:41:39.557Z,1.23
2022-12-08T22:44:13.069Z,1.27
2022-12-08T22:46:45.119Z,1.27
2022-12-08T22:49:17.567Z,1.38
2022-12-08T22:51:50.704Z,1.42
2022-12-08T22:54:22.365Z,1.42
2022-12-08T22:56:54.234Z,1.56
2022-12-08T22:59:25.942Z,1.73
2022-12-08T23:01:58.120Z,1.75
2022-12-08T23:04:29.782Z,1.66
2022-12-08T23:07:01.799Z,1.60
2022-12-08T23:09:33.336Z,1.50
2022-12-08T23:12:05.504Z,1.30
2022-12-08T23:14:37.315Z,1.10
2022-12-08T23:17:09.226Z,1.01
2022-12-08T23:19:43.005Z,0.97
2022-12-08T23:22:14.637Z,0.95
2022-12-08T23:24:46.942Z,1.02
2022-12-08T23:27:18.427Z,1.14
2022-12-08T23:29:50.427Z,1.19
2022-12-08T23:32:23.651Z,0.99
2022-12-08T23:34:55.417Z,0.81
2022-12-08T23:37:27.446Z,0.78
2022-12-08T23:39:59.454Z,0.78
2022-12-08T23:42:31.794Z,0.74
2022-12-08T23:45:04.589Z,0.76
2022-12-08T23:47:36.438Z,0.73
2022-12-08T23:50:12.385Z,0.74
2022-12-08T23:52:44.397Z,0.71
2022-12-08T23:55:16.484Z,0.88
2022-12-08T23:57:48.550Z,0.91
